createdAt,value
2022-08-11T00:01:53.864Z,101335.13
2022-08-11T00:04:24.468Z,101335.53
2022-08-11T00:06:52.335Z,101332.25
2022-08-11T00:09:24.175Z,101335.00
2022-08-11T00:11:58.434Z,101333.56
2022-08-11T00:14:36.904Z,101332.09
2022-08-11T00:17:12.000Z,101337.84
2022-08-11T00:20:14.038Z,101340.00
2022-08-11T00:22:30.127Z,101346.38
2022-08-11T00:25:02.210Z,101341.06
2022-08-11T00:27:36.600Z,101337.25
2022-08-11T00:30:05.680Z,101345.53
2022-08-11T00:32:33.484Z,101334.50
2022-08-11T00:35:51.317Z,101331.97
2022-08-11T00:37:50.671Z,101334.25
2022-08-11T00:40:50.695Z,101329.84
2022-08-11T00:43:22.226Z,101327.28
2022-08-11T00:46:18.608Z,101323.91
2022-08-11T00:49:11.969Z,101327.16
2022-08-11T00:52:16.093Z,101325.47
2022-08-11T00:55:04.331Z,101326.31
2022-08-11T00:57:39.682Z,101320.44
2022-08-11T01:00:13.331Z,101319.34
2022-08-11T01:03:10.588Z,101328.69
2022-08-11T01:05:51.562Z,101331.09
2022-08-11T01:08:27.077Z,101321.59
2022-08-11T01:11:55.241Z,101325.41
2022-08-11T01:14:46.840Z,101319.06
2022-08-11T01:17:35.733Z,101325.91
2022-08-11T01:20:46.774Z,101314.03
2022-08-11T01:23:31.455Z,101317.38
2022-08-11T01:26:43.125Z,101309.13
2022-08-11T01:29:37.262Z,101311.41
2022-08-11T01:32:06.616Z,101303.38
2022-08-11T01:34:58.342Z,101296.66
2022-08-11T01:37:59.175Z,101297.53
2022-08-11T01:40:25.689Z,101304.34
2022-08-11T01:43:13.875Z,101292.88
2022-08-11T01:45:57.292Z,101291.78
2022-08-11T01:48:35.877Z,101287.63
2022-08-11T01:51:17.113Z,101289.75
2022-08-11T01:53:43.946Z,101276.06
2022-08-11T01:56:19.250Z,101276.06
2022-08-11T01:58:54.361Z,101264.28
2022-08-11T02:01:44.432Z,101262.38
2022-08-11T02:04:29.409Z,101259.69
2022-08-11T02:07:21.448Z,101252.22
2022-08-11T02:09:49.596Z,101247.66
2022-08-11T02:12:27.256Z,101242.03
2022-08-11T02:15:14.251Z,101233.44
2022-08-11T02:17:46.820Z,101230.34
2022-08-11T02:20:41.140Z,101226.66
2022-08-11T02:24:05.387Z,101221.78
2022-08-11T02:26:36.733Z,101215.09
2022-08-11T02:29:24.735Z,101215.47
2022-08-11T02:32:37.907Z,101215.19
2022-08-11T02:35:36.742Z,101220.00
2022-08-11T02:38:28.154Z,101208.97
2022-08-11T02:41:41.820Z,101212.19
2022-08-11T02:44:24.666Z,101208.97
2022-08-11T02:47:28.140Z,101220.81
2022-08-11T02:50:26.682Z,101216.03
2022-08-11T02:53:06.580Z,101222.25
2022-08-11T02:55:58.238Z,101226.56
2022-08-11T02:58:35.462Z,101217.94
2022-08-11T03:01:28.435Z,101224.63
2022-08-11T03:04:03.892Z,101226.41
2022-08-11T03:06:49.483Z,101223.13
2022-08-11T03:09:38.433Z,101228.53
2022-08-11T03:12:36.691Z,101221.25
2022-08-11T03:15:37.505Z,101226.25
2022-08-11T03:18:31.678Z,101228.72
2022-08-11T03:21:20.937Z,101230.50
2022-08-11T03:24:03.608Z,101222.06
2022-08-11T03:27:11.080Z,101221.34
2022-08-11T03:30:04.960Z,101219.72
2022-08-11T03:33:40.844Z,101219.81
2022-08-11T03:36:33.762Z,101215.25
2022-08-11T03:39:24.517Z,101213.41
2022-08-11T03:42:26.168Z,101218.56
2022-08-11T03:45:17.788Z,101218.28
2022-08-11T03:48:19.741Z,101218.09
2022-08-11T03:51:06.353Z,101208.84
2022-08-11T03:53:55.949Z,101211.91
2022-08-11T03:56:57.746Z,101208.13
2022-08-11T03:59:51.232Z,101209.03
2022-08-11T04:02:54.928Z,101205.75
2022-08-11T04:05:56.982Z,101216.34
2022-08-11T04:09:05.319Z,101211.69
2022-08-11T04:11:37.939Z,101212.16
2022-08-11T04:15:08.303Z,101214.22
2022-08-11T04:17:40.565Z,101205.81
2022-08-11T04:20:16.685Z,101209.25
2022-08-11T04:23:11.866Z,101215.19
2022-08-11T04:26:27.007Z,101214.13
2022-08-11T04:29:20.772Z,101210.09
2022-08-11T04:32:05.931Z,101220.06
2022-08-11T04:34:55.661Z,101214.72
2022-08-11T04:37:53.365Z,101211.75
2022-08-11T04:40:57.688Z,101217.25
2022-08-11T04:44:05.445Z,101223.38
2022-08-11T04:47:07.675Z,101221.84
2022-08-11T04:50:24.972Z,101221.41
2022-08-11T04:53:19.175Z,101222.69
2022-08-11T04:56:30.305Z,101220.31
2022-08-11T04:59:36.999Z,101231.50
2022-08-11T05:02:22.207Z,101231.66
2022-08-11T05:05:25.932Z,101233.50
2022-08-11T05:08:08.676Z,101227.94
2022-08-11T05:11:12.915Z,101237.59
2022-08-11T05:14:05.134Z,101223.97
2022-08-11T05:17:00.138Z,101229.69
2022-08-11T05:20:02.204Z,101236.88
2022-08-11T05:22:48.962Z,101233.34
2022-08-11T05:26:43.267Z,101240.09
2022-08-11T05:28:46.824Z,101247.78
2022-08-11T05:31:34.149Z,101237.56
2022-08-11T05:34:30.031Z,101230.72
2022-08-11T05:37:34.405Z,101236.69
2022-08-11T05:40:29.196Z,101231.00
2022-08-11T05:43:18.183Z,101241.19
2022-08-11T05:46:14.572Z,101241.81
2022-08-11T05:49:00.354Z,101244.28
2022-08-11T05:51:55.254Z,101251.81
2022-08-11T05:54:46.652Z,101244.09
2022-08-11T05:57:45.450Z,101242.41
2022-08-11T06:00:19.471Z,101245.53
2022-08-11T06:02:51.198Z,101245.25
2022-08-11T06:05:19.624Z,101246.31
2022-08-11T06:07:49.979Z,101251.47
2022-08-11T06:10:34.936Z,101254.66
2022-08-11T06:13:02.386Z,101249.59
2022-08-11T06:15:34.192Z,101251.50
2022-08-11T06:18:02.953Z,101257.41
2022-08-11T06:20:37.425Z,101256.59
2022-08-11T06:23:06.816Z,101251.69
2022-08-11T06:25:35.859Z,101253.47
2022-08-11T06:28:07.488Z,101249.63
2022-08-11T06:30:42.420Z,101250.53
2022-08-11T06:33:29.564Z,101242.47
2022-08-11T06:36:11.088Z,101237.97
2022-08-11T06:38:57.178Z,101244.66
2022-08-11T06:41:30.424Z,101248.75
2022-08-11T06:44:29.255Z,101236.84
2022-08-11T06:47:04.377Z,101247.13
2022-08-11T06:49:56.409Z,101236.31
2022-08-11T06:52:34.468Z,101239.97
2022-08-11T06:55:57.752Z,101239.84
2022-08-11T06:59:11.241Z,101247.75
2022-08-11T07:02:03.459Z,101246.91
2022-08-11T07:04:43.162Z,101238.28
2022-08-11T07:07:59.659Z,101245.28
2022-08-11T07:11:23.439Z,101238.31
2022-08-11T07:14:12.916Z,101244.16
2022-08-11T07:16:44.438Z,101248.59
2022-08-11T07:19:33.371Z,101237.75
2022-08-11T07:22:23.245Z,101233.81
2022-08-11T07:25:18.250Z,101244.91
2022-08-11T07:28:07.525Z,101233.56
2022-08-11T07:30:39.775Z,101245.84
2022-08-11T07:33:07.340Z,101244.94
2022-08-11T07:35:42.630Z,101251.56
2022-08-11T07:38:22.652Z,101258.91
2022-08-11T07:40:52.005Z,101247.25
2022-08-11T07:43:18.722Z,101251.38
2022-08-11T07:46:05.220Z,101246.09
2022-08-11T07:48:53.089Z,101251.88
2022-08-11T07:51:39.523Z,101247.56
2022-08-11T07:54:16.331Z,101247.75
2022-08-11T07:56:55.012Z,101240.72
2022-08-11T08:00:03.453Z,101237.47
2022-08-11T08:02:48.813Z,101232.69
2022-08-11T08:05:36.172Z,101242.97
2022-08-11T08:08:21.639Z,101233.59
2022-08-11T08:11:06.957Z,101241.28
2022-08-11T08:13:54.084Z,101243.31
2022-08-11T08:16:39.983Z,101237.78
2022-08-11T08:19:07.018Z,101249.09
2022-08-11T08:21:33.864Z,101246.00
2022-08-11T08:24:01.081Z,101248.56
2022-08-11T08:26:48.269Z,101235.34
2022-08-11T08:29:38.656Z,101233.34
2022-08-11T08:32:06.952Z,101239.03
2022-08-11T08:34:36.805Z,101245.75
2022-08-11T08:37:15.688Z,101240.94
2022-08-11T08:39:53.384Z,101242.53
2022-08-11T08:42:24.329Z,101243.47
2022-08-11T08:44:58.834Z,101248.63
2022-08-11T08:47:42.076Z,101247.03
2022-08-11T08:50:19.363Z,101229.31
2022-08-11T08:52:54.787Z,101246.19
2022-08-11T08:55:22.444Z,101244.75
2022-08-11T08:57:52.665Z,101247.75
2022-08-11T09:00:23.225Z,101242.91
2022-08-11T09:02:51.525Z,101237.78
2022-08-11T09:05:19.961Z,101235.66
2022-08-11T09:07:51.088Z,101248.84
2022-08-11T09:10:20.321Z,101238.44
2022-08-11T09:12:48.201Z,101229.31
2022-08-11T09:15:19.434Z,101231.34
2022-08-11T09:17:50.409Z,101239.44
2022-08-11T09:20:23.825Z,101237.88
2022-08-11T09:24:07.442Z,101227.69
2022-08-11T09:26:18.961Z,101227.41
2022-08-11T09:28:47.113Z,101232.31
2022-08-11T09:31:14.819Z,101229.59
2022-08-11T09:33:44.031Z,101219.13
2022-08-11T09:36:31.649Z,101223.66
2022-08-11T09:39:18.964Z,101215.28
2022-08-11T09:42:01.040Z,101206.59
2022-08-11T09:44:50.484Z,101204.84
2022-08-11T09:47:23.446Z,101217.63
2022-08-11T09:49:53.739Z,101212.38
2022-08-11T09:52:22.237Z,101199.31
2022-08-11T09:54:50.782Z,101195.59
2022-08-11T09:57:57.222Z,101192.38
2022-08-11T10:00:33.096Z,101184.06
2022-08-11T10:03:02.654Z,101181.69
2022-08-11T10:05:48.869Z,101191.31
2022-08-11T10:08:19.220Z,101180.00
2022-08-11T10:10:47.585Z,101179.56
2022-08-11T10:14:31.296Z,101168.94
2022-08-11T10:16:15.940Z,101177.22
2022-08-11T10:18:52.300Z,101172.13
2022-08-11T10:21:42.344Z,101173.91
2022-08-11T10:24:30.402Z,101169.06
2022-08-11T10:27:02.759Z,101158.31
2022-08-11T10:29:52.110Z,101168.91
2022-08-11T10:32:57.283Z,101159.22
2022-08-11T10:35:28.093Z,101140.44
2022-08-11T10:38:07.890Z,101152.75
2022-08-11T10:40:38.801Z,101144.84
2022-08-11T10:43:07.556Z,101143.59
2022-08-11T10:45:58.087Z,101141.91
2022-08-11T10:48:27.009Z,101150.78
2022-08-11T10:51:13.639Z,101128.13
2022-08-11T10:54:05.199Z,101131.19
2022-08-11T10:56:55.057Z,101133.44
2022-08-11T10:59:27.494Z,101122.25
2022-08-11T11:01:55.451Z,101121.47
2022-08-11T11:04:36.070Z,101122.09
2022-08-11T11:07:13.796Z,101123.75
2022-08-11T11:09:54.313Z,101113.75
2022-08-11T11:13:00.424Z,101113.75
2022-08-11T11:15:48.434Z,101112.69
2022-08-11T11:18:17.744Z,101113.66
2022-08-11T11:20:47.500Z,101105.09
2022-08-11T11:23:29.441Z,101110.16
2022-08-11T11:26:27.421Z,101103.63
2022-08-11T11:29:16.238Z,101105.63
2022-08-11T11:31:53.360Z,101106.59
2022-08-11T11:34:53.288Z,101101.03
2022-08-11T11:37:22.794Z,101094.53
2022-08-11T11:39:50.239Z,101086.81
2022-08-11T11:42:18.548Z,101096.25
2022-08-11T11:44:46.855Z,101087.59
2022-08-11T11:47:14.441Z,101084.53
2022-08-11T11:49:45.213Z,101087.47
2022-08-11T11:52:19.034Z,101087.06
2022-08-11T11:54:50.241Z,101077.56
2022-08-11T11:57:37.658Z,101080.91
2022-08-11T12:00:24.932Z,101078.13
2022-08-11T12:03:07.772Z,101071.19
2022-08-11T12:05:36.226Z,101071.13
2022-08-11T12:08:13.137Z,101072.44
2022-08-11T12:11:11.271Z,101062.53
2022-08-11T12:13:45.952Z,101061.22
2022-08-11T12:16:34.633Z,101061.19
2022-08-11T12:19:06.624Z,101066.19
2022-08-11T12:21:36.060Z,101052.16
2022-08-11T12:24:21.910Z,101052.03
2022-08-11T12:26:54.381Z,101050.34
2022-08-11T12:29:36.448Z,101051.66
2022-08-11T12:32:08.984Z,101042.53
2022-08-11T12:34:36.575Z,101047.59
2022-08-11T12:37:13.516Z,101031.63
2022-08-11T12:40:42.223Z,101044.41
2022-08-11T12:43:24.338Z,101028.94
2022-08-11T12:46:08.103Z,101027.38
2022-08-11T12:49:03.587Z,101025.66
2022-08-11T12:52:12.417Z,101019.81
2022-08-11T12:55:38.753Z,101023.63
2022-08-11T12:58:17.075Z,101016.63
2022-08-11T13:01:03.655Z,101017.00
2022-08-11T13:03:52.376Z,101009.31
2022-08-11T13:06:25.098Z,101003.19
2022-08-11T13:08:53.303Z,100997.31
2022-08-11T13:11:56.576Z,100990.56
2022-08-11T13:14:26.082Z,100991.66
2022-08-11T13:17:12.268Z,100995.19
2022-08-11T13:19:44.187Z,100981.38
2022-08-11T13:22:16.157Z,100981.09
2022-08-11T13:24:44.175Z,100978.94
2022-08-11T13:27:13.980Z,100980.72
2022-08-11T13:29:42.932Z,100972.75
2022-08-11T13:32:11.353Z,100963.06
2022-08-11T13:34:42.312Z,100969.25
2022-08-11T13:37:14.593Z,100969.50
2022-08-11T13:39:47.200Z,100952.63
2022-08-11T13:42:18.068Z,100964.44
2022-08-11T13:44:45.397Z,100962.53
2022-08-11T13:47:14.311Z,100957.38
2022-08-11T13:49:42.597Z,100950.72
2022-08-11T13:52:15.360Z,100949.66
2022-08-11T13:54:43.145Z,100952.78
2022-08-11T13:57:13.429Z,100943.19
2022-08-11T13:59:51.954Z,100943.09
2022-08-11T14:02:29.251Z,100931.31
2022-08-11T14:05:07.123Z,100925.72
2022-08-11T14:07:46.379Z,100933.44
2022-08-11T14:10:14.935Z,100939.13
2022-08-11T14:13:06.491Z,100922.38
2022-08-11T14:15:35.083Z,100921.41
2022-08-11T14:18:17.132Z,100919.03
2022-08-11T14:21:03.188Z,100929.00
2022-08-11T14:23:35.971Z,100919.56
2022-08-11T14:26:21.885Z,100912.28
2022-08-11T14:28:49.028Z,100908.25
2022-08-11T14:31:16.072Z,100913.63
2022-08-11T14:34:00.264Z,100924.34
2022-08-11T14:36:35.925Z,100916.00
2022-08-11T14:39:07.262Z,100909.63
2022-08-11T14:42:10.631Z,100894.94
2022-08-11T14:45:01.589Z,100905.47
2022-08-11T14:47:34.480Z,100892.41
2022-08-11T14:50:10.733Z,100895.84
2022-08-11T14:52:51.302Z,100887.00
2022-08-11T14:55:40.868Z,100890.81
2022-08-11T14:58:11.081Z,100883.78
2022-08-11T15:00:39.345Z,100871.63
2022-08-11T15:03:10.936Z,100885.72
2022-08-11T15:05:57.112Z,100871.97
2022-08-11T15:08:47.941Z,100876.50
2022-08-11T15:11:36.147Z,100873.13
2022-08-11T15:14:06.296Z,100877.66
2022-08-11T15:16:51.861Z,100868.09
2022-08-11T15:19:21.158Z,100862.69
2022-08-11T15:22:07.800Z,100863.38
2022-08-11T15:24:36.419Z,100861.84
2022-08-11T15:27:32.855Z,100851.53
2022-08-11T15:30:33.020Z,100854.66
2022-08-11T15:33:25.742Z,100848.22
2022-08-11T15:36:12.721Z,100850.28
2022-08-11T15:38:44.308Z,100855.38
2022-08-11T15:41:35.996Z,100847.75
2022-08-11T15:44:51.462Z,100845.94
2022-08-11T15:47:20.331Z,100862.00
2022-08-11T15:50:11.883Z,100858.56
2022-08-11T15:52:49.743Z,100861.84
2022-08-11T15:55:23.715Z,100845.50
2022-08-11T15:58:12.331Z,100844.59
2022-08-11T16:01:04.232Z,100852.16
2022-08-11T16:04:09.520Z,100853.81
2022-08-11T16:07:07.018Z,100848.00
2022-08-11T16:09:47.420Z,100845.53
2022-08-11T16:13:03.147Z,100852.75
2022-08-11T16:15:50.560Z,100841.91
2022-08-11T16:18:21.020Z,100853.06
2022-08-11T16:20:55.391Z,100831.06
2022-08-11T16:23:26.528Z,100836.41
2022-08-11T16:27:04.996Z,100838.94
2022-08-11T16:28:44.388Z,100840.34
2022-08-11T16:31:12.681Z,100843.13
2022-08-11T16:33:50.082Z,100843.38
2022-08-11T16:36:37.592Z,100846.19
2022-08-11T16:39:05.530Z,100836.44
2022-08-11T16:41:52.231Z,100831.75
2022-08-11T16:44:39.303Z,100834.22
2022-08-11T16:47:08.522Z,100836.44
2022-08-11T16:49:40.167Z,100829.25
2022-08-11T16:52:12.013Z,100839.25
2022-08-11T16:54:40.315Z,100834.25
2022-08-11T16:57:34.410Z,100838.13
2022-08-11T17:00:08.119Z,100835.63
2022-08-11T17:03:01.162Z,100838.66
2022-08-11T17:05:53.750Z,100846.97
2022-08-11T17:08:54.223Z,100845.88
2022-08-11T17:11:46.017Z,100837.78
2022-08-11T17:14:35.276Z,100841.66
2022-08-11T17:17:06.168Z,100838.31
2022-08-11T17:20:40.712Z,100845.81
2022-08-11T17:22:41.732Z,100849.13
2022-08-11T17:25:11.660Z,100853.81
2022-08-11T17:27:39.096Z,100852.13
2022-08-11T17:30:07.791Z,100847.63
2022-08-11T17:33:00.498Z,100859.59
2022-08-11T17:35:35.914Z,100850.41
2022-08-11T17:38:10.155Z,100854.50
2022-08-11T17:40:39.049Z,100858.41
2022-08-11T17:43:28.478Z,100860.59
2022-08-11T17:46:05.203Z,100856.09
2022-08-11T17:48:53.150Z,100852.44
2022-08-11T17:51:39.484Z,100859.88
2022-08-11T17:54:27.629Z,100856.19
2022-08-11T17:57:21.104Z,100853.41
2022-08-11T17:59:53.971Z,100861.94
2022-08-11T18:02:44.672Z,100868.31
2022-08-11T18:05:20.326Z,100861.88
2022-08-11T18:08:08.892Z,100861.81
2022-08-11T18:10:55.015Z,100865.16
2022-08-11T18:13:42.050Z,100875.94
2022-08-11T18:16:27.953Z,100871.75
2022-08-11T18:19:13.937Z,100866.19
2022-08-11T18:22:15.180Z,100870.84
2022-08-11T18:25:09.021Z,100873.31
2022-08-11T18:27:56.879Z,100865.75
2022-08-11T18:30:42.869Z,100871.19
2022-08-11T18:34:05.427Z,100863.09
2022-08-11T18:36:40.296Z,100870.81
2022-08-11T18:39:29.259Z,100876.31
2022-08-11T18:42:29.733Z,100867.94
2022-08-11T18:45:19.659Z,100865.66
2022-08-11T18:48:11.351Z,100861.16
2022-08-11T18:51:29.665Z,100872.75
2022-08-11T18:54:07.938Z,100871.66
2022-08-11T18:56:54.357Z,100883.22
2022-08-11T18:59:44.236Z,100876.63
2022-08-11T19:02:32.126Z,100888.75
2022-08-11T19:06:06.239Z,100878.75
2022-08-11T19:08:34.765Z,100888.16
2022-08-11T19:11:19.950Z,100883.38
2022-08-11T19:14:09.611Z,100875.47
2022-08-11T19:16:56.707Z,100887.81
2022-08-11T19:19:47.212Z,100890.72
2022-08-11T19:22:33.493Z,100880.88
2022-08-11T19:25:25.179Z,100887.44
2022-08-11T19:28:13.251Z,100887.44
2022-08-11T19:30:59.096Z,100879.34
2022-08-11T19:33:59.994Z,100881.44
2022-08-11T19:36:50.095Z,100881.63
2022-08-11T19:39:36.185Z,100889.84
2022-08-11T19:42:22.412Z,100883.97
2022-08-11T19:45:08.355Z,100883.97
2022-08-11T19:48:08.240Z,100882.91
2022-08-11T19:51:01.244Z,100887.81
2022-08-11T19:53:49.532Z,100891.19
2022-08-11T19:56:36.064Z,100890.69
2022-08-11T19:59:22.449Z,100897.88
2022-08-11T20:02:13.628Z,100899.22
2022-08-11T20:05:00.010Z,100901.38
2022-08-11T20:07:47.521Z,100903.28
2022-08-11T20:10:38.324Z,100907.63
2022-08-11T20:13:27.070Z,100905.88
2022-08-11T20:16:14.411Z,100906.63
2022-08-11T20:19:00.797Z,100899.34
2022-08-11T20:21:47.414Z,100898.00
2022-08-11T20:24:36.093Z,100903.53
2022-08-11T20:27:24.970Z,100896.41
2022-08-11T20:30:12.570Z,100894.16
2022-08-11T20:32:59.716Z,100902.44
2022-08-11T20:35:45.645Z,100889.72
2022-08-11T20:38:32.728Z,100901.34
2022-08-11T20:41:20.255Z,100898.59
2022-08-11T20:44:09.433Z,100900.50
2022-08-11T20:46:59.899Z,100899.44
2022-08-11T20:49:56.595Z,100891.91
2022-08-11T20:52:48.830Z,100899.75
2022-08-11T20:55:51.230Z,100898.13
2022-08-11T21:01:45.300Z,100910.56
2022-08-11T21:04:30.839Z,100913.19
2022-08-11T21:07:28.481Z,100912.97
2022-08-11T21:10:23.133Z,100914.88
2022-08-11T21:13:25.706Z,100918.22
2022-08-11T21:16:26.543Z,100916.91
2022-08-11T21:20:01.153Z,100921.09
2022-08-11T21:22:59.657Z,100921.78
2022-08-11T21:26:05.865Z,100926.19
2022-08-11T21:28:53.272Z,100940.69
2022-08-11T21:31:40.299Z,100934.69
2022-08-11T21:34:29.401Z,100941.38
2022-08-11T21:37:16.000Z,100952.91
2022-08-11T21:40:03.457Z,100965.13
2022-08-11T21:42:57.282Z,100970.38
2022-08-11T21:45:44.057Z,100982.25
2022-08-11T21:48:30.992Z,100985.94
2022-08-11T21:51:17.103Z,100977.91
2022-08-11T21:54:02.859Z,100979.91
2022-08-11T21:56:51.840Z,100979.88
2022-08-11T21:59:54.296Z,100989.22
2022-08-11T22:02:40.395Z,100989.88
2022-08-11T22:05:26.769Z,100986.44
2022-08-11T22:08:12.137Z,100989.69
2022-08-11T22:10:58.149Z,101007.13
2022-08-11T22:13:43.416Z,101018.41
2022-08-11T22:16:48.440Z,101019.06
2022-08-11T22:19:35.431Z,101022.53
2022-08-11T22:22:21.293Z,101025.34
2022-08-11T22:25:16.638Z,101024.28
2022-08-11T22:28:04.027Z,101019.75
2022-08-11T22:30:49.351Z,101028.88
2022-08-11T22:33:35.233Z,101010.31
2022-08-11T22:36:22.868Z,101007.69
2022-08-11T22:39:09.359Z,100994.56
2022-08-11T22:41:55.060Z,100979.00
2022-08-11T22:44:40.365Z,100963.72
2022-08-11T22:47:30.240Z,100950.00
2022-08-11T22:50:26.677Z,100965.56
2022-08-11T22:53:13.561Z,100973.06
2022-08-11T22:55:59.591Z,100976.84
2022-08-11T22:58:45.425Z,100977.13
2022-08-11T23:01:35.559Z,100962.38
2022-08-11T23:04:21.869Z,100965.84
2022-08-11T23:07:08.135Z,100964.81
2022-08-11T23:09:53.433Z,100960.38
2022-08-11T23:12:39.072Z,100959.31
2022-08-11T23:15:26.667Z,100949.63
2022-08-11T23:18:12.378Z,100954.56
2022-08-11T23:20:59.225Z,100932.84
2022-08-11T23:23:47.434Z,100933.22
2022-08-11T23:26:34.805Z,100937.66
2022-08-11T23:29:21.272Z,100940.47
2022-08-11T23:32:09.641Z,100927.41
2022-08-11T23:35:04.849Z,100926.88
2022-08-11T23:38:03.392Z,100930.31
2022-08-11T23:40:48.850Z,100924.06
2022-08-11T23:43:41.489Z,100928.50
2022-08-11T23:46:26.789Z,100930.03
2022-08-11T23:49:15.653Z,100915.75
2022-08-11T23:52:02.127Z,100915.56
2022-08-11T23:54:47.920Z,100917.25
2022-08-11T23:57:33.340Z,100909.66
